Flight Track Log - Related Links

Times and Time Zones

All times are in EDT time to prevent confusion due to time zone crossing. See the SWA3247 flight status page for this flight to view local times or setup timezone preferences in your user account.

Time Position Orientation Groundspeed Altitude Reporting Facility
EDT Latitude Longitude Course Direction KTS MPH feet Rate Location/Type
Fri 09:03:27 PM 36.0758 -115.1072 91° East 171 197 3,000  Level Los Angeles Center
Fri 09:04:28 PM 36.0747 -115.0331 91° East 224 258 4,500 1,590 Climbing Los Angeles Center
Fri 09:05:24 PM 36.0764 -114.9761 88° East 223 257 6,100 1,866 Climbing Los Angeles Center
Fri 09:06:27 PM 36.0900 -114.8661 81° East 268 308 8,200 2,064 Climbing Los Angeles Center
Fri 09:07:29 PM 36.1069 -114.7647 78° East 295 339 10,400 1,839 Climbing Los Angeles Center
Fri 09:08:31 PM 36.1306 -114.6281 78° East 355 409 12,000 1,765 Climbing Los Angeles Center
Fri 09:09:45 PM 36.1506 -114.5000 79° East 368 423 14,400 2,338 Climbing Los Angeles Center
Fri 09:10:47 PM 36.1767 -114.3442 78° East 383 441 17,300 2,448 Climbing Los Angeles Center
Fri 09:11:50 PM 36.1975 -114.2108 79° East 394 453 19,500 2,064 Climbing Los Angeles Center
Fri 09:12:52 PM 36.2136 -114.0731 82° East 404 465 21,600 1,984 Climbing Los Angeles Center
Fri 09:13:54 PM 36.2297 -113.9289 82° East 420 483 23,600 1,756 Climbing Los Angeles Center
Fri 09:14:55 PM 36.2439 -113.8133 81° East 424 488 25,200 1,694 Climbing Los Angeles Center
Fri 09:15:58 PM 36.2683 -113.6053 82° East 437 503 27,100 1,680 Climbing Los Angeles Center
Fri 09:17:00 PM 36.2858 -113.4511 82° East 450 518 28,700 1,355 Climbing Los Angeles Center
Fri 09:18:02 PM 36.3039 -113.2944 82° East 457 526 29,900 1,317 Climbing Los Angeles Center
Fri 09:19:03 PM 36.3333 -113.1639 74° East 463 533 31,400 1,500 Climbing Los Angeles Center
Fri 09:20:06 PM 36.3936 -112.9903 67° East 458 527 33,000 768 Climbing Los Angeles Center
Fri 09:21:08 PM 36.4408 -112.8408 69° East 463 533 33,000  Level Los Angeles Center
Fri 09:22:10 PM 36.4889 -112.6928 68° East 465 535 33,000  Level Los Angeles Center
Fri 09:23:12 PM 36.5469 -112.5144 68° East 466 536 33,000  Level Los Angeles Center
Fri 09:24:14 PM 36.5939 -112.3664 68° East 464 534 33,000  Level Los Angeles Center
Fri 09:25:16 PM 36.6408 -112.2178 68° East 463 533 33,000  Level Los Angeles Center
Fri 09:26:18 PM 36.6881 -112.0694 68° East 463 533 33,000  Level Los Angeles Center
Fri 09:27:31 PM 36.7356 -111.9208 68° East 464 534 33,000  Level Los Angeles Center
Fri 09:28:34 PM 36.8008 -111.7122 69° East 464 534 33,000  Level Los Angeles Center
Fri 09:29:36 PM 36.8469 -111.5608 69° East 468 539 33,000  Level Los Angeles Center
Fri 09:30:38 PM 36.8942 -111.4092 69° East 469 540 33,000 541 Level Los Angeles Center
Fri 09:31:49 PM 36.9483 -111.2308 69° East 463 533 34,200 902 Climbing Denver Center
Fri 09:32:51 PM 36.9850 -111.1108 69° East 461 531 35,000 387 Climbing Denver Center
Fri 09:33:53 PM 37.0303 -110.9617 69° East 461 531 35,000  Level Denver Center
Fri 09:34:55 PM 37.0842 -110.7814 69° East 462 532 35,000  Level Denver Center
Fri 09:35:57 PM 37.1297 -110.6317 69° East 461 531 35,000  Level Denver Center
Fri 09:36:59 PM 37.1831 -110.4506 70° East 464 534 35,000  Level Denver Center
Fri 09:38:00 PM 37.2194 -110.3303 69° East 462 532 35,000  Level Denver Center
Fri 09:39:03 PM 37.2725 -110.1478 70° East 461 531 35,000  Level Denver Center
Fri 09:40:05 PM 37.3056 -109.9994 74° East 462 532 35,000  Level Denver Center
Fri 09:41:06 PM 37.3375 -109.8231 77° East 462 532 35,000  Level Denver Center
Fri 09:42:08 PM 37.3603 -109.6719 79° East 459 528 35,000 145 Level Denver Center
Fri 09:43:10 PM 37.4078 -109.5031 70° East 459 528 35,300 677 Climbing Denver Center
Fri 09:44:12 PM 37.4508 -109.3567 70° East 464 534 36,400 823 Climbing Denver Center
Fri 09:45:14 PM 37.5000 -109.1864 70° East 463 533 37,000 290 Climbing Denver Center
Fri 09:46:16 PM 37.5428 -109.0403 70° East 464 534 37,000  Level Denver Center
Fri 09:47:18 PM 37.5914 -108.8703 70° East 462 532 37,000  Level Denver Center
Fri 09:48:20 PM 37.6331 -108.7244 70° East 461 531 37,000  Level Denver Center
Fri 09:49:22 PM 37.6739 -108.5794 70° East 459 528 37,000  Level Denver Center
Fri 09:50:24 PM 37.7211 -108.4103 71° East 457 526 37,000  Level Denver Center
Fri 09:51:26 PM 37.7633 -108.2639 70° East 461 531 37,000  Level Denver Center
Fri 09:52:28 PM 37.8117 -108.0944 70° East 459 528 37,000  Level Denver Center
Fri 09:53:30 PM 37.8536 -107.9464 70° East 463 533 37,000  Level Denver Center
Fri 09:54:32 PM 37.8869 -107.8219 71° East 466 536 37,000  Level Denver Center
Fri 09:55:34 PM 37.9414 -107.6256 71° East 463 533 37,000  Level Denver Center
Fri 09:56:36 PM 37.9889 -107.4519 71° East 466 536 37,000  Level Denver Center
Fri 09:57:38 PM 38.0289 -107.3022 71° East 466 536 37,000  Level Denver Center
Fri 09:58:39 PM 38.0628 -107.1769 71° East 462 532 37,000  Level Denver Center
Fri 09:59:42 PM 38.1150 -106.9833 71° East 468 539 37,000  Level Denver Center
Fri 10:00:44 PM 38.1558 -106.8311 71° East 459 528 37,000  Level Denver Center
Fri 10:01:46 PM 38.2008 -106.6603 71° East 457 526 37,000  Level Denver Center
Fri 10:02:48 PM 38.2403 -106.5139 71° East 456 525 37,000  Level Denver Center
Fri 10:03:50 PM 38.2844 -106.3386 72° East 463 533 37,000  Level Denver Center
Fri 10:04:51 PM 38.3164 -106.2153 72° East 461 531 37,000  Level Denver Center
Fri 10:05:53 PM 38.3667 -106.0278 71° East 466 536 37,000  Level Denver Center
Fri 10:06:55 PM 38.4031 -105.8772 73° East 464 534 37,000  Level Denver Center
Fri 10:07:57 PM 38.4481 -105.7094 71° East 465 535 37,000  Level Denver Center
Fri 10:08:59 PM 38.4839 -105.5519 74° East 466 536 37,000  Level Denver Center
Fri 10:10:01 PM 38.5019 -105.3903 82° East 468 539 37,000  Level Denver Center
Fri 10:11:03 PM 38.5222 -105.1944 82° East 466 536 37,000  Level Denver Center
Fri 10:12:05 PM 38.5361 -105.0653 82° East 464 534 37,000  Level Denver Center
Fri 10:13:07 PM 38.5528 -104.8706 84° East 464 534 37,000  Level Denver Center
Fri 10:14:09 PM 38.5700 -104.7050 82° East 468 539 37,000  Level Denver Center
Fri 10:15:11 PM 38.5883 -104.5386 82° East 473 544 37,000  Level Denver Center
Fri 10:16:12 PM 38.6047 -104.4044 81° East 477 549 37,000  Level Denver Center
Fri 10:17:15 PM 38.6564 -104.1789 74° East 480 552 37,000  Level Denver Center
Fri 10:18:29 PM 38.6944 -104.0306 72° East 468 539 37,000  Level Denver Center
Fri 10:19:31 PM 38.7483 -103.8225 72° East 480 552 37,000  Level Denver Center
Fri 10:20:33 PM 38.7883 -103.6667 72° East 481 554 37,000  Level Denver Center
Fri 10:21:35 PM 38.8356 -103.4844 72° East 482 555 37,000  Level Denver Center
Fri 10:22:36 PM 38.8797 -103.3100 72° East 479 551 37,000  Level Denver Center
Fri 10:23:38 PM 38.9208 -103.1486 72° East 479 551 37,000  Level Denver Center
Fri 10:24:40 PM 38.9606 -102.9889 72° East 474 545 37,000  Level Denver Center
Fri 10:25:42 PM 39.0008 -102.8269 72° East 478 550 37,000  Level Denver Center
Fri 10:26:44 PM 39.0456 -102.6428 73° East 480 552 37,000  Level Denver Center
Fri 10:27:45 PM 39.0847 -102.4872 72° East 478 550 37,000  Level Denver Center
Fri 10:28:47 PM 39.1222 -102.3297 73° East 481 554 37,000  Level Denver Center
Fri 10:29:49 PM 39.1672 -102.1444 73° East 483 556 37,000  Level Denver Center
Fri 10:30:51 PM 39.2044 -101.9886 73° East 475 547 37,000  Level Denver Center
Fri 10:31:52 PM 39.2481 -101.8067 73° East 474 545 37,000  Level Denver Center
Fri 10:32:54 PM 39.2869 -101.6464 73° East 476 548 37,000  Level Denver Center
Fri 10:33:56 PM 39.3292 -101.4647 73° East 475 547 37,000  Level Denver Center
Fri 10:34:58 PM 39.3656 -101.3083 73° East 476 548 37,000  Level Denver Center
Fri 10:35:59 PM 39.4022 -101.1514 73° East 478 550 37,000  Level Denver Center
Fri 10:37:01 PM 39.4442 -100.9692 73° East 477 549 37,000  Level Denver Center
Fri 10:38:03 PM 39.4789 -100.8139 74° East 474 545 37,000  Level Denver Center
Fri 10:39:04 PM 39.5203 -100.6342 73° East 470 541 37,000  Level Denver Center
Fri 10:40:06 PM 39.5547 -100.4819 74° East 465 535 37,000  Level Denver Center
Fri 10:41:08 PM 39.5944 -100.3039 74° East 464 534 37,000  Level Denver Center
Fri 10:42:09 PM 39.6281 -100.1500 74° East 464 534 37,000  Level Denver Center
Fri 10:43:11 PM 39.6667 -99.9722 74° East 460 529 37,000  Level Denver Center
Fri 10:44:13 PM 39.6986 -99.8275 74° East 463 533 37,000  Level Denver Center
Fri 10:45:14 PM 39.7342 -99.6658 74° East 466 536 37,000  Level Denver Center
Fri 10:46:16 PM 39.7683 -99.5069 74° East 461 531 37,000  Level Denver Center
Fri 10:47:18 PM 39.8089 -99.3156 75° East 460 529 37,000  Level Denver Center
Fri 10:48:19 PM 39.8442 -99.1517 74° East 469 540 37,000  Level Denver Center
Fri 10:49:21 PM 39.8781 -98.9881 75° East 469 540 37,000  Level Denver Center
Fri 10:50:23 PM 39.9119 -98.8256 75° East 468 539 37,000  Level Denver Center
Fri 10:51:04 PM 39.9386 -98.6967 75° East 468 539 37,000  Level Minneapolis Center
Fri 10:52:06 PM 39.9714 -98.5353 75° East 464 534 37,000  Level Minneapolis Center
Fri 10:53:07 PM 40.0044 -98.3744 75° East 462 532 37,000  Level Minneapolis Center
Fri 10:54:09 PM 40.0392 -98.2014 75° East 464 534 37,000  Level Minneapolis Center
Fri 10:55:22 PM 40.0758 -98.0156 75° East 466 536 37,000  Level Minneapolis Center
Fri 10:56:36 PM 40.1147 -97.8211 75° East 464 534 37,000  Level Minneapolis Center
Fri 10:57:37 PM 40.1475 -97.6578 75° East 466 536 37,000  Level Minneapolis Center
Fri 10:58:39 PM 40.1800 -97.4931 75° East 468 539 37,000  Level Minneapolis Center
Fri 10:59:43 PM 40.2144 -97.3144 76° East 467 537 37,000  Level Minneapolis Center
Fri 11:00:44 PM 40.2469 -97.1481 76° East 471 542 37,000  Level Minneapolis Center
Fri 11:01:46 PM 40.2847 -96.9478 76° East 474 545 37,000  Level Minneapolis Center
Fri 11:02:47 PM 40.3164 -96.7797 76° East 476 548 37,000  Level Minneapolis Center
Fri 11:04:01 PM 40.3478 -96.6117 76° East 476 548 37,000  Level Minneapolis Center
Fri 11:05:02 PM 40.3853 -96.4114 76° East 474 545 37,000  Level Minneapolis Center
Fri 11:06:16 PM 40.4156 -96.2425 77° East 476 548 37,000  Level Minneapolis Center
Fri 11:07:17 PM 40.4519 -96.0411 77° East 476 548 37,000  Level Minneapolis Center
Fri 11:08:19 PM 40.4825 -95.8719 77° East 477 549 37,000  Level Minneapolis Center
Fri 11:09:20 PM 40.5128 -95.7019 77° East 479 551 37,000  Level Minneapolis Center
Fri 11:10:22 PM 40.5492 -95.4953 77° East 482 555 37,000  Level Minneapolis Center
Fri 11:11:23 PM 40.5792 -95.3214 77° East 485 558 37,000  Level Minneapolis Center
Fri 11:12:25 PM 40.6100 -95.1467 77° East 489 563 37,000  Level Minneapolis Center
Fri 11:13:26 PM 40.6403 -94.9731 77° East 489 563 37,000  Level Minneapolis Center
Fri 11:14:28 PM 40.6697 -94.8006 77° East 487 560 37,000  Level Minneapolis Center
Fri 11:15:29 PM 40.6983 -94.6283 78° East 485 558 37,000  Level Minneapolis Center
Fri 11:16:30 PM 40.7267 -94.4603 77° East 485 558 37,000  Level Minneapolis Center
Fri 11:17:32 PM 40.7606 -94.2544 78° East 483 556 37,000  Level Minneapolis Center
Fri 11:18:33 PM 40.7869 -94.0822 79° East 484 557 37,000  Level Minneapolis Center
Fri 11:19:35 PM 40.8139 -93.9092 78° East 483 556 37,000  Level Minneapolis Center
Fri 11:20:36 PM 40.8431 -93.7369 77° East 484 557 37,000  Level Minneapolis Center
Fri 11:21:32 PM 40.8719 -93.5617 78° East 484 557 37,000  Level Chicago Center
Fri 11:22:33 PM 40.8992 -93.3881 78° East 485 558 37,000  Level Chicago Center
Fri 11:23:35 PM 40.9264 -93.2117 78° East 490 564 37,000  Level Chicago Center
Fri 11:24:36 PM 40.9531 -93.0356 79° East 491 565 37,000  Level Chicago Center
Fri 11:25:37 PM 40.9789 -92.8575 79° East 493 567 37,000  Level Chicago Center
Fri 11:26:39 PM 41.0075 -92.6769 78° East 500 575 37,000  Level Chicago Center
Fri 11:27:40 PM 41.0336 -92.4981 79° East 499 574 37,000  Level Chicago Center
Fri 11:28:42 PM 41.0653 -92.2814 79° East 502 578 37,000  Level Chicago Center
Fri 11:29:43 PM 41.0911 -92.1028 79° East 498 573 37,000  Level Chicago Center
Fri 11:30:44 PM 41.1167 -91.9231 79° East 500 575 37,000  Level Chicago Center
Fri 11:31:46 PM 41.1419 -91.7433 79° East 499 574 37,000  Level Chicago Center
Fri 11:32:47 PM 41.1672 -91.5711 79° East 498 573 37,000  Level Chicago Center
Fri 11:33:48 PM 41.1928 -91.3872 79° East 504 580 37,000  Level Chicago Center
Fri 11:34:50 PM 41.2164 -91.2042 80° East 504 580 37,000  Level Chicago Center
Fri 11:35:51 PM 41.2417 -91.0200 80° East 506 582 37,000  Level Chicago Center
Fri 11:36:52 PM 41.2714 -90.7989 80° East 507 583 37,000  Level Chicago Center
Fri 11:37:53 PM 41.2950 -90.6139 80° East 506 582 37,000  Level Chicago Center
Fri 11:38:55 PM 41.3181 -90.4308 80° East 502 578 37,000  Level Chicago Center
Fri 11:39:56 PM 41.3425 -90.2467 80° East 505 581 37,000  Level Chicago Center
Fri 11:40:57 PM 41.3661 -90.0614 80° East 505 581 37,000  Level Chicago Center
Fri 11:41:59 PM 41.3883 -89.8753 81° East 507 583 37,000  Level Chicago Center
Fri 11:43:00 PM 41.4117 -89.6911 80° East 505 581 37,000  Level Chicago Center
Fri 11:44:01 PM 41.4336 -89.5103 81° East 495 570 37,000  Level Chicago Center
Fri 11:45:02 PM 41.4553 -89.3317 81° East 490 564 37,000  Level Chicago Center
Fri 11:46:03 PM 41.4819 -89.1553 79° East 479 551 37,000  Level Chicago Center
Fri 11:47:05 PM 41.5083 -88.9808 79° East 481 554 37,000  Level Chicago Center
Fri 11:48:06 PM 41.5353 -88.8064 78° East 483 556 37,000  Level Chicago Center
Fri 11:49:07 PM 41.5656 -88.5981 79° East 480 552 37,000  Level Chicago Center
Fri 11:50:08 PM 41.5911 -88.4247 79° East 477 549 37,000  Level Chicago Center
Fri 11:51:09 PM 41.6161 -88.2508 79° East 476 548 37,000  Level Chicago Center
Fri 11:52:10 PM 41.6417 -88.0742 79° East 477 549 37,000  Level Chicago Center
Fri 11:53:11 PM 41.6669 -87.8969 79° East 482 555 37,000  Level Chicago Center
Fri 11:54:12 PM 41.6900 -87.7242 80° East 474 545 37,000 98 Level Chicago Center
Fri 11:55:13 PM 41.7139 -87.5522 79° East 472 543 37,200 787 Climbing Chicago Center
Fri 11:56:14 PM 41.7372 -87.3817 80° East 469 540 38,600 885 Climbing Chicago Center
Fri 11:57:15 PM 41.7600 -87.2122 80° East 465 535 39,000 197 Climbing Chicago Center
Fri 11:58:16 PM 41.7839 -87.0386 79° East 474 545 39,000  Level Chicago Center
Fri 11:59:18 PM 41.8061 -86.8656 80° East 474 545 39,000  Level Chicago Center
Sat 12:00:19 AM 41.8303 -86.6750 80° East 466 536 39,000  Level Chicago Center
Sat 12:01:20 AM 41.8517 -86.5053 80° East 463 533 39,000  Level Chicago Center
Sat 12:02:29 AM 41.8742 -86.3344 80° East 464 534 39,000  Level Chicago Center
Sat 12:03:34 AM 41.8994 -86.1272 81° East 468 539 39,000  Level Chicago Center
Sat 12:04:35 AM 41.9214 -85.9550 80° East 467 537 39,000  Level Chicago Center
Sat 12:05:36 AM 41.9422 -85.7828 81° East 467 537 39,000  Level Chicago Center
Sat 12:06:37 AM 41.9625 -85.6094 81° East 467 537 39,000  Level Chicago Center
Sat 12:07:38 AM 41.9839 -85.4364 81° East 467 537 39,000  Level Chicago Center
Sat 12:08:39 AM 42.0050 -85.2536 81° East 456 525 39,000  Level Chicago Center
Sat 12:09:40 AM 42.0247 -85.0844 81° East 460 529 39,000  Level Chicago Center
Sat 12:10:41 AM 42.0436 -84.9169 81° East 457 526 39,000  Level Chicago Center
Sat 12:11:42 AM 42.0622 -84.7511 81° East 451 519 39,000  Level Chicago Center
Sat 12:12:43 AM 42.0811 -84.5842 81° East 454 522 39,000  Level Chicago Center
Sat 12:13:44 AM 42.0997 -84.4164 81° East 455 524 39,000  Level Chicago Center
Sat 12:14:45 AM 42.1172 -84.2492 82° East 454 522 39,000  Level Chicago Center
Sat 12:15:46 AM 42.1347 -84.0800 82° East 457 526 39,000  Level Chicago Center
Sat 12:16:47 AM 42.1564 -83.8772 82° East 457 526 39,000  Level Chicago Center
Sat 12:17:48 AM 42.1731 -83.7067 82° East 460 529 39,000  Level Chicago Center
Sat 12:18:56 AM 42.1936 -83.5119 82° East 459 528 39,000  Level Cleveland Center
Sat 12:19:56 AM 42.2083 -83.3389 83° East 467 537 39,000  Level Cleveland Center
Sat 12:20:56 AM 42.2222 -83.1825 83° East 459 528 39,000  Level Cleveland Center
Sat 12:21:56 AM 42.2386 -83.0064 83° East 470 541 39,000  Level Cleveland Center
Sat 12:22:56 AM 42.2567 -82.8358 82° East 470 541 39,000  Level Cleveland Center
Sat 12:23:56 AM 42.2725 -82.6625 83° East 465 535 39,000  Level Cleveland Center
Sat 12:24:56 AM 42.2903 -82.4861 82° East 465 535 39,000  Level Cleveland Center
Sat 12:25:56 AM 42.3033 -82.3125 84° East 465 535 39,000  Level Cleveland Center
Sat 12:26:56 AM 42.3206 -82.1389 82° East 465 535 39,000  Level Cleveland Center
Sat 12:27:56 AM 42.3372 -81.9653 83° East 465 535 39,000  Level Cleveland Center
Sat 12:28:56 AM 42.3539 -81.7744 83° East 457 526 39,000  Level Cleveland Center
Sat 12:29:56 AM 42.3661 -81.5978 85° East 469 540 39,000  Level Cleveland Center
Sat 12:30:56 AM 42.3822 -81.4236 83° East 469 540 39,000  Level Cleveland Center
Sat 12:31:56 AM 42.3958 -81.2522 84° East 462 532 39,000  Level Cleveland Center
Sat 12:32:56 AM 42.4092 -81.0753 84° East 462 532 39,000  Level Cleveland Center
Sat 12:33:56 AM 42.4222 -80.9011 84° East 462 532 39,000  Level Cleveland Center
Sat 12:34:56 AM 42.4372 -80.7211 83° East 467 537 39,000  Level Cleveland Center
Sat 12:35:56 AM 42.4478 -80.5411 85° East 467 537 39,000  Level Cleveland Center
Sat 12:36:56 AM 42.4622 -80.3833 83° East 472 543 39,000  Level Cleveland Center
Sat 12:37:56 AM 42.4742 -80.2031 85° East 472 543 39,000  Level Cleveland Center
Sat 12:38:56 AM 42.4881 -80.0258 84° East 472 543 39,000  Level Cleveland Center
Sat 12:39:56 AM 42.5036 -79.8314 84° East 472 543 39,000  Level Cleveland Center
Sat 12:40:56 AM 42.5128 -79.6536 86° East 477 549 39,000  Level Cleveland Center
Sat 12:41:56 AM 42.5258 -79.4731 84° East 477 549 39,000  Level Cleveland Center
Sat 12:42:56 AM 42.5364 -79.2956 85° East 477 549 39,000  Level Cleveland Center
Sat 12:43:56 AM 42.5489 -79.1175 84° East 477 549 39,000  Level Cleveland Center
Sat 12:44:56 AM 42.5589 -78.9369 86° East 482 555 39,000  Level Cleveland Center
Sat 12:45:56 AM 42.5686 -78.7564 86° East 482 555 39,000  Level Cleveland Center
Sat 12:46:56 AM 42.5783 -78.5783 86° East 482 555 39,000  Level Cleveland Center
Sat 12:47:56 AM 42.5894 -78.3947 85° East 482 555 39,000  Level Cleveland Center
Sat 12:48:56 AM 42.5986 -78.2167 86° East 482 555 39,000  Level Cleveland Center
Sat 12:49:56 AM 42.6072 -78.0358 86° East 482 555 39,000  Level Cleveland Center
Sat 12:50:56 AM 42.6158 -77.8606 86° East 477 549 39,000 -200 Level Cleveland Center
Sat 12:51:56 AM 42.6242 -77.6908 86° East 485 558 38,600 -700 Descending Cleveland Center
Sat 12:52:56 AM 42.6361 -77.5097 85° East 480 552 37,600 -950 Descending Cleveland Center
Sat 12:53:56 AM 42.6417 -77.3286 88° East 485 558 36,700 -960 Descending Cleveland Center
Sat 12:55:01 AM 42.6503 -77.1156 87° East 469 540 35,600 -1,008 Descending Boston Center
Sat 12:56:01 AM 42.6597 -76.9328 86° East 474 545 34,600 -909 Descending Boston Center
Sat 12:57:13 AM 42.6644 -76.7550 88° East 474 545 33,600 -909 Descending Boston Center
Sat 12:58:13 AM 42.6731 -76.5806 86° East 469 540 32,600 -1,100 Descending Boston Center
Sat 12:59:13 AM 42.6806 -76.3692 87° East 464 534 31,400 -1,150 Descending Boston Center
Sat 01:00:13 AM 42.6864 -76.1972 87° East 459 528 30,300 -1,050 Descending Boston Center
Sat 01:01:13 AM 42.6939 -76.0253 87° East 454 522 29,300 -1,300 Descending Boston Center
Sat 01:02:13 AM 42.6972 -75.8558 88° East 454 522 27,700 -1,750 Descending Boston Center
Sat 01:03:13 AM 42.7039 -75.6922 87° East 447 514 25,800 -1,900 Descending Boston Center
Sat 01:04:13 AM 42.7086 -75.5314 88° East 437 503 23,900 -1,900 Descending Boston Center
Sat 01:05:13 AM 42.7125 -75.3789 88° East 422 486 22,000 -1,800 Descending Boston Center
Sat 01:06:13 AM 42.7164 -75.2294 88° East 408 470 20,300 -1,700 Descending Boston Center
Sat 01:07:13 AM 42.7197 -75.0883 88° East 387 445 18,600 -1,950 Descending Boston Center
Sat 01:08:13 AM 42.7225 -74.9611 88° East 375 432 16,400 -2,000 Descending Boston Center
Sat 01:09:13 AM 42.7256 -74.8256 88° East 364 419 14,600 -1,754 Descending Boston Center
Sat 01:10:23 AM 42.7289 -74.6617 88° East 350 403 12,600 -1,650 Descending Boston Center
Sat 01:11:13 AM 42.7308 -74.5600 88° East 354 407 11,300 -1,473 Descending Boston Center
Sat 01:12:13 AM 42.7333 -74.4244 89° East 330 380 9,900 -1,150 Descending Boston Center
Sat 01:13:13 AM 42.7369 -74.3200 87° East 318 366 9,000 -1,200 Descending Boston Center
Sat 01:14:13 AM 42.7369 -74.1956 90° East 307 353 7,500 -1,250 Descending Boston Center
Sat 01:15:13 AM 42.7089 -74.1156 115° Southeast 275 316 6,500 -1,200 Descending Boston Center
Sat 01:16:13 AM 42.6536 -74.0578 142° Southeast 254 292 5,100 -1,350 Descending Boston Center
Sat 01:17:13 AM 42.5878 -73.9911 143° Southeast 254 292 3,800 -950 Descending Boston Center
Sat 01:18:13 AM 42.5492 -73.9253 129° Southeast 242 278 3,200 -400 Descending Boston Center
Sat 01:19:13 AM 42.5439 -73.8436 95° East 213 245 3,000 -450 Descending Boston Center
Sat 01:20:13 AM 42.5819 -73.7992 41° Northeast 169 194 2,300 -500 Descending Boston Center
Sat 01:21:13 AM 42.6236 -73.8031 356° North 144 166 2,000 -150 Descending Boston Center
Sat 01:22:13 AM 42.6614 -73.7728 31° Northeast 144 166 2,000 -652 Level Boston Center
Sat 01:23:31 AM 42.7256 -73.8053 340° North 140 161 500 -1,154 Descending Boston Center
Sat 01:25:00 AM 42.7333 -73.8000 90° East  Level FlightAware Approximate
Sat 01:32:00 AM 42.7491 -73.8020 90° East  Level Estimated
Sat 01:33:00 AM 42.7491 -73.8020 90° East  Level Estimated
Sat 01:34:00 AM 42.7491 -73.8020 90° East  Level Estimated

Login

Don't have an account? Register now (free) for customized features, flight alerts, and more!